Terminal Aerodrome Forecast
Issued by NWS Boston, MA

Home | Current Version | Previous Version | Text Only | Print | Product List | Glossary On
Versions: 1 2 3 4 5 6 7 8 9 10 11 12 13 14 15 16 17 18 19 20 21 22 23 24 25 26
000
FTUS41 KBOX 181510 AAA
TAFBDL
TAF AMD
KBDL 181510Z 1815/1918 00000KT P6SM FEW120 SCT250
     FM182100 19006KT P6SM VCSH OVC080
     FM190000 19007KT 4SM BR VCSH OVC020
     FM190300 19008KT 3SM -RA BR OVC015
     FM190900 20011KT 1SM -RA BR OVC010
     FM191100 21011G19KT 1SM -SHRA BR OVC010
     FM191300 22011G22KT 4SM -SHRA OVC020
     FM191500 25012G27KT P6SM VCSH BKN035=

USA.gov is the U.S. government's official web portal to all federal, state and local government web resources and services.